createdAt,value
2023-05-19T00:02:06.140Z,15.23
2023-05-19T00:04:35.564Z,15.25
2023-05-19T00:07:05.694Z,15.23
2023-05-19T00:09:34.644Z,15.23
2023-05-19T00:12:03.403Z,15.23
2023-05-19T00:14:32.172Z,15.28
2023-05-19T00:17:03.223Z,15.30
2023-05-19T00:19:32.457Z,15.26
2023-05-19T00:22:00.861Z,15.27
2023-05-19T00:24:29.665Z,15.34
2023-05-19T00:26:58.090Z,15.33
2023-05-19T00:29:26.579Z,15.34
2023-05-19T00:31:54.918Z,15.30
2023-05-19T00:34:24.664Z,15.32
2023-05-19T00:36:52.910Z,15.29
2023-05-19T00:39:21.447Z,15.30
2023-05-19T00:41:49.870Z,15.26
2023-05-19T00:44:18.181Z,15.22
2023-05-19T00:46:46.762Z,15.15
2023-05-19T00:49:15.415Z,15.15
2023-05-19T00:51:45.121Z,15.09
2023-05-19T00:54:13.546Z,14.96
2023-05-19T00:56:42.426Z,14.85
2023-05-19T00:59:10.803Z,14.79
2023-05-19T01:01:39.164Z,14.85
2023-05-19T01:04:10.159Z,14.81
2023-05-19T01:06:39.276Z,14.86
2023-05-19T01:09:09.301Z,14.88
2023-05-19T01:11:37.763Z,14.94
2023-05-19T01:14:06.328Z,14.96
2023-05-19T01:16:39.734Z,14.93
2023-05-19T01:19:32.466Z,14.99
2023-05-19T01:22:46.519Z,15.00
2023-05-19T01:25:49.409Z,15.10
2023-05-19T01:28:53.270Z,15.17
2023-05-19T01:31:25.218Z,15.10
2023-05-19T01:33:55.324Z,15.00
2023-05-19T01:36:24.913Z,14.98
2023-05-19T01:38:55.368Z,14.87
2023-05-19T01:41:24.425Z,14.82
2023-05-19T01:43:54.362Z,14.75
2023-05-19T01:46:25.650Z,14.78
2023-05-19T01:48:54.756Z,14.78
2023-05-19T01:51:23.272Z,14.71
2023-05-19T01:53:51.641Z,14.65
2023-05-19T01:56:39.856Z,14.64
2023-05-19T01:59:18.757Z,14.70
2023-05-19T02:01:54.649Z,14.73
2023-05-19T02:04:39.355Z,14.73
2023-05-19T02:07:23.090Z,14.65
2023-05-19T02:09:57.397Z,14.71
2023-05-19T02:12:30.085Z,14.64
2023-05-19T02:15:05.113Z,14.62
2023-05-19T02:17:40.350Z,14.61
2023-05-19T02:20:10.202Z,14.62
2023-05-19T02:22:38.719Z,14.60
2023-05-19T02:25:07.786Z,14.60
2023-05-19T02:27:36.523Z,14.52
2023-05-19T02:30:05.146Z,14.52
2023-05-19T02:32:35.198Z,14.53
2023-05-19T02:35:04.142Z,14.54
2023-05-19T02:37:32.699Z,14.61
2023-05-19T02:40:01.222Z,14.58
2023-05-19T02:42:29.576Z,14.66
2023-05-19T02:44:57.850Z,14.63
2023-05-19T02:47:26.176Z,14.67
2023-05-19T02:49:55.972Z,14.74
2023-05-19T02:52:24.263Z,14.76
2023-05-19T02:54:52.625Z,14.83
2023-05-19T02:57:21.014Z,14.86
2023-05-19T02:59:49.342Z,14.91
2023-05-19T03:02:17.637Z,15.01
2023-05-19T03:04:45.898Z,15.12
2023-05-19T03:07:15.681Z,15.39
2023-05-19T03:09:44.111Z,15.51
2023-05-19T03:12:12.390Z,15.69
2023-05-19T03:14:41.261Z,15.75
2023-05-19T03:17:10.426Z,15.86
2023-05-19T03:19:38.783Z,16.08
2023-05-19T03:22:07.030Z,16.28
2023-05-19T03:24:36.822Z,16.41
2023-05-19T03:27:06.542Z,16.51
2023-05-19T03:29:34.866Z,16.48
2023-05-19T03:32:03.219Z,16.44
2023-05-19T03:34:32.782Z,16.65
2023-05-19T03:37:01.215Z,16.99
2023-05-19T03:39:29.479Z,17.23
2023-05-19T03:41:59.245Z,17.50
2023-05-19T03:44:27.523Z,17.50
2023-05-19T03:46:55.892Z,17.88
2023-05-19T03:49:24.153Z,18.09
2023-05-19T03:51:52.469Z,18.06
2023-05-19T03:54:22.565Z,18.12
2023-05-19T03:56:51.182Z,18.28
2023-05-19T03:59:21.015Z,18.01
2023-05-19T04:01:49.308Z,18.41
2023-05-19T04:04:17.824Z,18.50
2023-05-19T04:06:46.107Z,18.50
2023-05-19T04:09:16.395Z,18.21
2023-05-19T04:11:44.880Z,18.18
2023-05-19T04:14:13.242Z,18.50
2023-05-19T04:16:43.464Z,18.65
2023-05-19T04:19:11.781Z,18.70
2023-05-19T04:21:40.088Z,18.83
2023-05-19T04:24:08.824Z,19.07
2023-05-19T04:26:38.492Z,19.15
2023-05-19T04:29:06.812Z,19.41
2023-05-19T04:31:36.111Z,19.66
2023-05-19T04:34:05.993Z,19.54
2023-05-19T04:36:34.306Z,19.56
2023-05-19T04:39:06.444Z,20.04
2023-05-19T04:41:35.159Z,19.40
2023-05-19T04:44:03.581Z,19.79
2023-05-19T04:46:32.422Z,20.16
2023-05-19T04:49:01.402Z,20.31
2023-05-19T04:51:31.537Z,20.62
2023-05-19T04:54:00.207Z,20.05
2023-05-19T04:56:29.046Z,19.81
2023-05-19T04:58:57.381Z,19.18
2023-05-19T05:01:26.385Z,18.67
2023-05-19T05:03:58.869Z,18.03
2023-05-19T05:06:28.753Z,17.85
2023-05-19T05:08:58.788Z,17.62
2023-05-19T05:11:27.544Z,17.51
2023-05-19T05:13:58.304Z,17.80
2023-05-19T05:16:27.900Z,17.82
2023-05-19T05:18:57.601Z,17.73
2023-05-19T05:21:28.995Z,18.41
2023-05-19T05:23:59.758Z,18.93
2023-05-19T05:26:31.858Z,19.05
2023-05-19T05:29:00.186Z,19.07
2023-05-19T05:31:28.834Z,18.74
2023-05-19T05:33:57.389Z,18.64
2023-05-19T05:36:25.705Z,19.63
2023-05-19T05:38:53.950Z,20.30
2023-05-19T05:41:23.785Z,20.93
2023-05-19T05:43:52.086Z,21.72
2023-05-19T05:46:20.412Z,22.33
2023-05-19T05:48:49.393Z,22.82
2023-05-19T05:51:18.276Z,23.01
2023-05-19T05:53:52.408Z,23.12
2023-05-19T05:56:21.807Z,23.47
2023-05-19T05:58:52.119Z,22.97
2023-05-19T06:01:21.042Z,22.91
2023-05-19T06:03:49.463Z,23.18
2023-05-19T06:06:17.842Z,23.78
2023-05-19T06:08:46.260Z,23.91
2023-05-19T06:11:14.813Z,23.54
2023-05-19T06:13:43.194Z,23.97
2023-05-19T06:16:12.890Z,24.26
2023-05-19T06:18:41.457Z,24.55
2023-05-19T06:21:10.569Z,24.38
2023-05-19T06:23:38.873Z,24.68
2023-05-19T06:26:07.228Z,23.67
2023-05-19T06:28:35.833Z,23.47
2023-05-19T06:31:04.127Z,23.90
2023-05-19T06:33:33.821Z,25.13
2023-05-19T06:36:02.272Z,23.82
2023-05-19T06:38:31.628Z,23.50
2023-05-19T06:40:59.927Z,23.28
2023-05-19T06:43:28.866Z,23.17
2023-05-19T06:45:57.295Z,24.86
2023-05-19T06:48:25.745Z,25.10
2023-05-19T06:50:56.145Z,25.18
2023-05-19T06:53:24.579Z,24.45
2023-05-19T06:55:59.570Z,24.77
2023-05-19T06:58:28.712Z,25.34
2023-05-19T07:00:57.765Z,25.14
2023-05-19T07:03:26.173Z,25.50
2023-05-19T07:05:56.438Z,23.59
2023-05-19T07:08:24.810Z,24.51
2023-05-19T07:10:53.082Z,24.55
2023-05-19T07:13:21.389Z,25.53
2023-05-19T07:15:50.220Z,25.16
2023-05-19T07:18:18.484Z,26.15
2023-05-19T07:20:46.792Z,26.41
2023-05-19T07:23:17.501Z,25.60
2023-05-19T07:25:45.884Z,24.53
2023-05-19T07:28:14.180Z,25.26
2023-05-19T07:30:42.575Z,24.85
2023-05-19T07:33:12.146Z,24.89
2023-05-19T07:35:40.986Z,24.89
2023-05-19T07:38:09.291Z,24.55
2023-05-19T07:40:39.370Z,25.41
2023-05-19T07:43:08.048Z,25.47
2023-05-19T07:45:36.438Z,24.87
2023-05-19T07:48:05.284Z,24.87
2023-05-19T07:50:34.506Z,24.30
2023-05-19T07:53:02.964Z,24.95
2023-05-19T07:55:31.396Z,24.36
2023-05-19T07:58:01.130Z,23.83
2023-05-19T08:00:29.675Z,22.94
2023-05-19T08:02:58.328Z,22.59
2023-05-19T08:05:26.940Z,22.50
2023-05-19T08:07:55.226Z,22.13
2023-05-19T08:10:23.500Z,22.10
2023-05-19T08:12:51.900Z,21.68
2023-05-19T08:15:22.112Z,22.60
2023-05-19T08:17:50.429Z,22.60
2023-05-19T08:20:18.832Z,22.41
2023-05-19T08:22:47.112Z,22.23
2023-05-19T08:25:15.478Z,22.25
2023-05-19T08:27:43.949Z,22.59
2023-05-19T08:30:13.475Z,22.15
2023-05-19T08:32:43.493Z,22.23
2023-05-19T08:35:11.983Z,22.39
2023-05-19T08:37:40.264Z,22.69
2023-05-19T08:40:13.347Z,23.00
2023-05-19T08:42:41.600Z,23.08
2023-05-19T08:45:10.623Z,23.04
2023-05-19T08:47:39.288Z,23.00
2023-05-19T08:50:12.737Z,22.64
2023-05-19T08:52:52.869Z,23.01
2023-05-19T08:55:34.424Z,22.82
2023-05-19T08:58:04.420Z,22.51
2023-05-19T09:00:33.354Z,22.58
2023-05-19T09:03:17.353Z,22.68
2023-05-19T09:05:53.041Z,22.53
2023-05-19T09:08:22.711Z,22.90
2023-05-19T09:10:51.086Z,22.78
2023-05-19T09:13:19.640Z,22.59
2023-05-19T09:15:49.975Z,22.36
2023-05-19T09:18:18.508Z,22.25
2023-05-19T09:20:47.520Z,21.84
2023-05-19T09:23:19.031Z,21.55
2023-05-19T09:25:50.628Z,21.92
2023-05-19T09:28:30.691Z,21.66
2023-05-19T09:31:02.929Z,21.87
2023-05-19T09:33:31.667Z,21.37
2023-05-19T09:35:59.983Z,21.93
2023-05-19T09:38:29.858Z,22.24
2023-05-19T09:41:00.256Z,22.47
2023-05-19T09:43:30.019Z,22.75
2023-05-19T09:46:01.938Z,22.86
2023-05-19T09:48:30.602Z,22.37
2023-05-19T09:50:59.192Z,21.86
2023-05-19T09:53:27.801Z,21.53
2023-05-19T09:55:59.019Z,21.85
2023-05-19T09:58:28.124Z,21.84
2023-05-19T10:00:57.636Z,21.20
2023-05-19T10:03:27.540Z,21.76
2023-05-19T10:05:56.836Z,21.75
2023-05-19T10:08:26.725Z,21.81
2023-05-19T10:10:55.277Z,21.88
2023-05-19T10:13:26.707Z,21.95
2023-05-19T10:15:59.223Z,21.65
2023-05-19T10:18:29.668Z,21.77
2023-05-19T10:20:59.047Z,22.09
2023-05-19T10:23:27.701Z,22.42
2023-05-19T10:25:59.748Z,22.09
2023-05-19T10:28:36.123Z,21.87
2023-05-19T10:31:08.445Z,22.32
2023-05-19T10:33:54.417Z,22.12
2023-05-19T10:36:47.625Z,22.50
2023-05-19T10:39:20.318Z,22.43
2023-05-19T10:41:59.985Z,22.31
2023-05-19T10:44:42.255Z,22.07
2023-05-19T10:47:12.432Z,21.92
2023-05-19T10:49:41.607Z,22.31
2023-05-19T10:52:23.464Z,22.32
2023-05-19T10:54:54.796Z,22.69
2023-05-19T10:57:28.444Z,22.54
2023-05-19T11:00:00.735Z,22.32
2023-05-19T11:02:44.186Z,22.63
2023-05-19T11:05:14.726Z,22.45
2023-05-19T11:07:44.787Z,22.85
2023-05-19T11:10:13.775Z,22.68
2023-05-19T11:12:44.210Z,22.75
2023-05-19T11:15:16.087Z,22.81
2023-05-19T11:17:49.945Z,23.07
2023-05-19T11:20:26.248Z,23.14
2023-05-19T11:23:07.344Z,22.61
2023-05-19T11:25:48.196Z,22.79
2023-05-19T11:28:19.567Z,22.79
2023-05-19T11:30:52.132Z,22.66
2023-05-19T11:33:27.808Z,22.70
2023-05-19T11:35:59.009Z,23.12
2023-05-19T11:38:30.243Z,22.97
2023-05-19T11:40:59.072Z,22.76
2023-05-19T11:43:28.085Z,22.94
2023-05-19T11:45:57.906Z,22.93
2023-05-19T11:48:27.540Z,22.76
2023-05-19T11:50:56.973Z,22.70
2023-05-19T11:53:25.417Z,22.97
2023-05-19T11:55:53.770Z,22.93
2023-05-19T11:58:28.532Z,22.75
2023-05-19T12:00:58.266Z,23.04
2023-05-19T12:03:28.338Z,23.40
2023-05-19T12:05:56.992Z,23.28
2023-05-19T12:08:27.234Z,23.20
2023-05-19T12:10:56.275Z,23.06
2023-05-19T12:13:24.601Z,22.99
2023-05-19T12:15:53.560Z,22.98
2023-05-19T12:18:23.485Z,22.73
2023-05-19T12:20:52.004Z,22.77
2023-05-19T12:23:21.028Z,22.78
2023-05-19T12:25:50.659Z,22.70
2023-05-19T12:28:20.666Z,22.72
2023-05-19T12:30:52.488Z,22.70
2023-05-19T12:33:22.909Z,22.91
2023-05-19T12:35:51.863Z,22.96
2023-05-19T12:38:21.299Z,22.92
2023-05-19T12:40:51.062Z,22.93
2023-05-19T12:43:22.720Z,22.79
2023-05-19T12:45:51.103Z,22.72
2023-05-19T12:48:22.687Z,22.65
2023-05-19T12:50:54.011Z,22.75
2023-05-19T12:53:23.121Z,22.64
2023-05-19T12:55:54.139Z,22.81
2023-05-19T12:58:23.335Z,22.83
2023-05-19T13:00:52.894Z,23.04
2023-05-19T13:03:22.237Z,23.22
2023-05-19T13:05:52.602Z,23.18
2023-05-19T13:08:24.033Z,23.12
2023-05-19T13:10:52.731Z,22.92
2023-05-19T13:13:22.105Z,23.24
2023-05-19T13:15:50.496Z,23.53
2023-05-19T13:18:19.434Z,23.52
2023-05-19T13:20:50.277Z,23.50
2023-05-19T13:23:20.198Z,23.54
2023-05-19T13:25:48.444Z,23.44
2023-05-19T13:28:16.728Z,23.35
2023-05-19T13:30:45.348Z,23.21
2023-05-19T13:33:13.831Z,23.26
2023-05-19T13:35:42.556Z,23.22
2023-05-19T13:38:11.967Z,23.13
2023-05-19T13:40:41.748Z,23.13
2023-05-19T13:43:10.284Z,23.30
2023-05-19T13:45:39.331Z,23.26
2023-05-19T13:48:08.672Z,23.17
2023-05-19T13:50:36.960Z,23.04
2023-05-19T13:53:05.365Z,23.12
2023-05-19T13:55:34.046Z,23.05
2023-05-19T13:58:03.800Z,22.97
2023-05-19T14:00:33.256Z,23.09
2023-05-19T14:03:02.116Z,23.07
2023-05-19T14:05:31.225Z,23.03
2023-05-19T14:08:01.151Z,23.25
2023-05-19T14:10:29.749Z,23.19
2023-05-19T14:15:38.087Z,23.15
2023-05-19T14:18:07.164Z,23.08
2023-05-19T14:20:36.162Z,23.01
2023-05-19T14:23:04.708Z,23.03
2023-05-19T14:25:32.994Z,22.88
2023-05-19T14:28:01.455Z,22.98
2023-05-19T14:30:31.199Z,23.05
2023-05-19T14:32:59.514Z,23.08
2023-05-19T14:35:27.952Z,23.08
2023-05-19T14:37:56.228Z,23.06
2023-05-19T14:40:24.448Z,22.93
2023-05-19T14:42:52.747Z,22.81
2023-05-19T14:45:21.071Z,22.95
2023-05-19T14:47:50.842Z,23.04
2023-05-19T14:50:19.146Z,22.99
2023-05-19T14:52:47.438Z,23.00
2023-05-19T14:55:15.759Z,22.97
2023-05-19T14:57:45.483Z,22.88
2023-05-19T15:00:14.826Z,22.80
2023-05-19T15:02:43.180Z,22.76
2023-05-19T15:05:13.085Z,22.78
2023-05-19T15:07:41.302Z,22.84
2023-05-19T15:10:10.371Z,22.75
2023-05-19T15:12:38.959Z,22.79
2023-05-19T15:15:08.390Z,22.82
2023-05-19T15:17:36.792Z,22.78
2023-05-19T15:20:05.780Z,22.77
2023-05-19T15:22:35.732Z,22.67
2023-05-19T15:25:04.136Z,22.67
2023-05-19T15:27:32.468Z,22.68
2023-05-19T15:30:00.811Z,22.63
2023-05-19T15:32:29.276Z,22.62
2023-05-19T15:34:57.538Z,22.61
2023-05-19T15:37:25.832Z,22.68
2023-05-19T15:39:56.173Z,22.47
2023-05-19T15:42:24.540Z,22.56
2023-05-19T15:44:52.793Z,22.60
2023-05-19T15:47:21.104Z,22.53
2023-05-19T15:49:49.419Z,22.44
2023-05-19T15:52:17.736Z,22.40
2023-05-19T15:54:46.781Z,22.35
2023-05-19T15:57:16.424Z,22.32
2023-05-19T15:59:44.712Z,22.22
2023-05-19T16:02:13.245Z,22.28
2023-05-19T16:04:41.630Z,22.18
2023-05-19T16:07:09.889Z,22.18
2023-05-19T16:09:38.189Z,22.13
2023-05-19T16:12:07.024Z,22.09
2023-05-19T16:14:37.947Z,22.05
2023-05-19T16:17:11.483Z,21.92
2023-05-19T16:19:39.952Z,21.85
2023-05-19T16:22:08.303Z,21.80
2023-05-19T16:24:36.605Z,21.73
2023-05-19T16:27:05.544Z,21.64
2023-05-19T16:29:33.770Z,21.64
2023-05-19T16:32:03.652Z,21.56
2023-05-19T16:34:32.093Z,21.49
2023-05-19T16:37:01.579Z,21.49
2023-05-19T16:39:29.821Z,21.42
2023-05-19T16:41:58.146Z,21.37
2023-05-19T16:44:26.672Z,21.32
2023-05-19T16:46:54.915Z,21.22
2023-05-19T16:49:24.656Z,21.21
2023-05-19T16:51:54.212Z,21.15
2023-05-19T16:54:23.476Z,21.11
2023-05-19T16:56:52.422Z,21.04
2023-05-19T16:59:20.680Z,20.99
2023-05-19T17:01:49.105Z,20.99
2023-05-19T17:04:17.451Z,20.87
2023-05-19T17:06:47.653Z,20.87
2023-05-19T17:09:15.943Z,20.75
2023-05-19T17:11:44.238Z,20.75
2023-05-19T17:14:13.109Z,20.70
2023-05-19T17:16:41.503Z,20.68
2023-05-19T17:19:09.867Z,20.60
2023-05-19T17:21:38.284Z,20.63
2023-05-19T17:24:08.158Z,20.53
2023-05-19T17:26:36.481Z,20.50
2023-05-19T17:29:05.567Z,20.41
2023-05-19T17:31:33.983Z,20.35
2023-05-19T17:34:02.317Z,20.22
2023-05-19T17:36:31.067Z,20.16
2023-05-19T17:38:59.610Z,20.11
2023-05-19T17:41:29.268Z,20.09
2023-05-19T17:43:57.707Z,20.06
2023-05-19T17:46:26.018Z,20.04
2023-05-19T17:48:54.355Z,20.04
2023-05-19T17:51:23.353Z,19.99
2023-05-19T17:53:52.287Z,20.03
2023-05-19T17:56:22.665Z,20.03
2023-05-19T17:58:53.303Z,19.99
2023-05-19T18:01:24.235Z,19.96
2023-05-19T18:03:53.110Z,19.95
2023-05-19T18:06:22.119Z,19.91
2023-05-19T18:08:51.839Z,19.83
2023-05-19T18:11:21.520Z,19.80
2023-05-19T18:13:49.805Z,19.79
2023-05-19T18:16:19.513Z,19.79
2023-05-19T18:18:50.519Z,19.72
2023-05-19T18:21:19.216Z,19.66
2023-05-19T18:23:48.076Z,19.73
2023-05-19T18:26:17.463Z,19.69
2023-05-19T18:28:48.343Z,19.59
2023-05-19T18:31:20.079Z,19.55
2023-05-19T18:33:57.560Z,19.49
2023-05-19T18:36:25.843Z,19.44
2023-05-19T18:38:55.244Z,19.38
2023-05-19T18:41:23.526Z,19.29
2023-05-19T18:43:51.981Z,19.19
2023-05-19T18:46:20.403Z,19.12
2023-05-19T18:48:50.935Z,19.04
2023-05-19T18:51:21.475Z,18.95
2023-05-19T18:53:50.715Z,18.85
2023-05-19T18:56:24.842Z,18.84
2023-05-19T18:58:53.290Z,18.82
2023-05-19T19:01:21.695Z,18.74
2023-05-19T19:03:51.565Z,18.74
2023-05-19T19:06:20.799Z,18.69
2023-05-19T19:08:49.192Z,18.70
2023-05-19T19:11:17.418Z,18.71
2023-05-19T19:13:45.895Z,18.74
2023-05-19T19:16:14.171Z,18.72
2023-05-19T19:18:42.436Z,18.77
2023-05-19T19:21:12.143Z,18.80
2023-05-19T19:23:40.513Z,18.82
2023-05-19T19:26:09.651Z,18.85
2023-05-19T19:28:38.134Z,18.91
2023-05-19T19:31:06.418Z,18.95
2023-05-19T19:33:34.668Z,19.03
2023-05-19T19:36:04.105Z,19.03
2023-05-19T19:38:33.763Z,19.06
2023-05-19T19:41:02.074Z,19.09
2023-05-19T19:43:30.552Z,19.05
2023-05-19T19:46:02.958Z,19.01
2023-05-19T19:48:31.634Z,18.99
2023-05-19T19:51:00.222Z,19.00
2023-05-19T19:53:28.492Z,19.00
2023-05-19T19:56:02.921Z,18.93
2023-05-19T19:58:31.368Z,18.95
2023-05-19T20:01:00.837Z,18.99
2023-05-19T20:03:29.641Z,19.00
2023-05-19T20:05:58.348Z,18.87
2023-05-19T20:08:27.037Z,18.81
2023-05-19T20:10:55.490Z,18.75
2023-05-19T20:13:25.231Z,18.81
2023-05-19T20:15:53.504Z,18.80
2023-05-19T20:18:21.825Z,18.81
2023-05-19T20:20:50.049Z,18.71
2023-05-19T20:23:18.577Z,18.68
2023-05-19T20:26:02.381Z,18.58
2023-05-19T20:28:32.467Z,18.49
2023-05-19T20:31:00.918Z,18.47
2023-05-19T20:33:29.292Z,18.39
2023-05-19T20:35:57.761Z,18.30
2023-05-19T20:38:26.085Z,18.20
2023-05-19T20:40:55.160Z,18.23
2023-05-19T20:43:23.460Z,18.13
2023-05-19T20:45:53.369Z,18.22
2023-05-19T20:48:21.726Z,18.20
2023-05-19T20:50:50.221Z,18.13
2023-05-19T20:53:19.537Z,18.16
2023-05-19T20:55:47.805Z,18.17
2023-05-19T20:58:16.097Z,18.08
2023-05-19T21:00:44.718Z,18.04
2023-05-19T21:03:14.490Z,18.05
2023-05-19T21:05:42.935Z,18.08
2023-05-19T21:08:12.959Z,18.14
2023-05-19T21:10:41.720Z,18.11
2023-05-19T21:13:10.014Z,18.15
2023-05-19T21:15:38.503Z,18.15
2023-05-19T21:18:07.876Z,18.10
2023-05-19T21:20:37.641Z,18.10
2023-05-19T21:23:06.066Z,18.12
2023-05-19T21:25:34.526Z,18.20
2023-05-19T21:28:03.431Z,18.24
2023-05-19T21:30:31.889Z,18.23
2023-05-19T21:33:00.610Z,18.12
2023-05-19T21:35:28.929Z,18.15
2023-05-19T21:38:03.949Z,18.12
2023-05-19T21:40:37.853Z,18.16
2023-05-19T21:43:06.789Z,18.08
2023-05-19T21:45:35.282Z,18.10
2023-05-19T21:48:03.657Z,18.05
2023-05-19T21:50:32.135Z,18.14
2023-05-19T21:53:02.786Z,18.15
2023-05-19T21:55:31.276Z,18.22
2023-05-19T21:58:00.982Z,18.14
2023-05-19T22:00:30.719Z,18.13
2023-05-19T22:02:59.502Z,18.10
2023-05-19T22:05:27.876Z,18.04
2023-05-19T22:07:56.227Z,18.03
2023-05-19T22:10:26.136Z,17.89
2023-05-19T22:12:54.520Z,17.87
2023-05-19T22:15:22.963Z,17.87
2023-05-19T22:17:51.659Z,17.85
2023-05-19T22:20:20.156Z,17.79
2023-05-19T22:22:48.487Z,17.74
2023-05-19T22:25:17.031Z,17.69
2023-05-19T22:27:46.884Z,17.64
2023-05-19T22:30:15.778Z,17.63
2023-05-19T22:32:44.148Z,17.53
2023-05-19T22:35:13.324Z,17.53
2023-05-19T22:37:41.634Z,17.50
2023-05-19T22:40:10.879Z,17.48
2023-05-19T22:42:39.199Z,17.48
2023-05-19T22:45:10.711Z,17.54
2023-05-19T22:47:39.095Z,17.53
2023-05-19T22:50:10.185Z,17.53
2023-05-19T22:52:38.509Z,17.52
2023-05-19T22:55:07.825Z,17.47
2023-05-19T22:57:36.308Z,17.40
2023-05-19T23:00:05.053Z,17.35
2023-05-19T23:02:34.786Z,17.33
2023-05-19T23:05:03.307Z,17.25
2023-05-19T23:07:31.654Z,17.23
2023-05-19T23:10:00.085Z,17.16
2023-05-19T23:12:28.471Z,17.11
2023-05-19T23:14:56.816Z,17.06
2023-05-19T23:17:25.149Z,17.03
2023-05-19T23:19:55.120Z,16.92
2023-05-19T23:22:23.423Z,16.88
2023-05-19T23:24:51.696Z,16.87
2023-05-19T23:27:19.993Z,16.82
2023-05-19T23:29:52.568Z,16.73
2023-05-19T23:32:20.909Z,16.77
2023-05-19T23:34:49.663Z,16.82
2023-05-19T23:37:19.392Z,16.83
2023-05-19T23:39:47.826Z,16.90
2023-05-19T23:42:16.205Z,16.87
2023-05-19T23:44:44.507Z,16.84
2023-05-19T23:47:12.909Z,16.79
2023-05-19T23:49:41.236Z,16.78
2023-05-19T23:52:09.518Z,16.77
2023-05-19T23:54:39.167Z,16.79
2023-05-19T23:57:09.117Z,16.82
2023-05-19T23:59:37.564Z,16.87
